Time,TemperatureF,DewpointF,PressureIn,WindDirection,WindDirectionDegrees,WindSpeedMPH,WindSpeedGustMPH,Humidity,HourlyPrecipIn,Conditions,Clouds,dailyrainin,SoftwareType,DateUTC
2013-08-13 00:02:00,66.6,64.8,29.68,NW,315,0.0,0.0,94,0.00,RA,SCT,0.00,WeatherDisplay:10.37,2013-08-13 08:02:00,
2013-08-13 00:07:00,66.7,65.0,29.68,NW,315,0.0,0.0,94,0.00,RA,SCT,0.00,WeatherDisplay:10.37,2013-08-13 08:07:00,
2013-08-13 00:12:00,66.6,64.8,29.68,NW,315,0.0,0.0,94,0.00,CLR,SCT,0.00,WeatherDisplay:10.37,2013-08-13 08:12:00,
2013-08-13 00:17:00,66.4,64.6,29.68,NW,315,0.0,0.0,94,0.00,CLR,SCT,0.00,WeatherDisplay:10.37,2013-08-13 08:17:00,
2013-08-13 00:22:00,66.4,64.6,29.68,NW,315,0.0,0.0,94,0.00,CLR,SCT,0.00,WeatherDisplay:10.37,2013-08-13 08:22:00,
2013-08-13 00:27:00,66.2,64.4,29.68,NW,315,0.0,0.0,94,0.00,CLR,SCT,0.00,WeatherDisplay:10.37,2013-08-13 08:27:00,
2013-08-13 00:32:00,66.2,64.4,29.68,NW,315,0.0,0.0,94,0.00,CLR,SCT,0.00,WeatherDisplay:10.37,2013-08-13 08:32:00,
2013-08-13 00:37:00,66.2,64.4,29.68,NW,315,0.0,0.0,94,0.00,CLR,SCT,0.00,WeatherDisplay:10.37,2013-08-13 08:37:00,
2013-08-13 00:42:00,66.0,64.2,29.68,NW,315,0.0,0.0,94,0.00,CLR,SCT,0.00,WeatherDisplay:10.37,2013-08-13 08:42:00,
2013-08-13 00:47:00,66.2,64.4,29.65,NW,315,0.0,0.0,94,0.00,CLR,SCT,0.00,WeatherDisplay:10.37,2013-08-13 08:47:00,
2013-08-13 00:52:00,66.2,64.4,29.65,NW,315,0.0,0.0,94,0.00,CLR,SCT,0.00,WeatherDisplay:10.37,2013-08-13 08:52:00,
2013-08-13 00:57:00,66.4,64.6,29.65,NW,315,0.0,0.0,94,0.00,CLR,SCT,0.00,WeatherDisplay:10.37,2013-08-13 08:57:00,
2013-08-13 01:02:00,66.7,65.0,29.65,NW,315,0.0,0.0,94,0.00,CLR,SCT,0.00,WeatherDisplay:10.37,2013-08-13 09:02:00,
2013-08-13 01:07:00,66.6,64.8,29.65,NW,315,0.0,0.0,94,0.00,CLR,SCT,0.00,WeatherDisplay:10.37,2013-08-13 09:07:00,
2013-08-13 01:12:00,66.6,64.8,29.65,NW,315,0.0,0.0,94,0.00,CLR,SCT,0.00,WeatherDisplay:10.37,2013-08-13 09:12:00,
2013-08-13 01:17:00,66.6,64.8,29.65,NW,315,0.0,0.0,94,0.00,CLR,SCT,0.00,WeatherDisplay:10.37,2013-08-13 09:17:00,
2013-08-13 01:22:00,66.4,64.6,29.65,NW,315,0.0,0.0,94,0.00,CLR,SCT,0.00,WeatherDisplay:10.37,2013-08-13 09:22:00,
2013-08-13 01:27:00,66.4,64.6,29.65,NW,315,0.0,0.0,94,0.00,CLR,SCT,0.00,WeatherDisplay:10.37,2013-08-13 09:27:00,
2013-08-13 01:32:00,66.4,64.6,29.65,NW,315,0.0,0.0,94,0.00,CLR,SCT,0.00,WeatherDisplay:10.37,2013-08-13 09:32:00,
2013-08-13 01:37:00,66.2,64.4,29.65,NW,315,0.0,0.0,94,0.00,CLR,SCT,0.00,WeatherDisplay:10.37,2013-08-13 09:37:00,
2013-08-13 01:42:00,66.0,64.5,29.65,NW,315,0.0,0.0,95,0.00,CLR,SCT,0.00,WeatherDisplay:10.37,2013-08-13 09:42:00,
2013-08-13 01:47:00,65.8,64.4,29.65,NW,315,0.0,0.0,95,0.00,CLR,SCT,0.00,WeatherDisplay:10.37,2013-08-13 09:47:00,
2013-08-13 01:52:00,65.8,64.4,29.65,NW,315,0.0,0.0,95,0.00,CLR,SCT,0.00,WeatherDisplay:10.37,2013-08-13 09:52:00,
2013-08-13 01:57:00,65.7,64.2,29.65,NW,315,0.0,0.0,95,0.00,CLR,SCT,0.00,WeatherDisplay:10.37,2013-08-13 09:57:00,
2013-08-13 02:03:00,65.1,63.7,29.65,NW,315,0.0,0.0,95,0.00,CLR,SCT,0.00,WeatherDisplay:10.37,2013-08-13 10:03:00,
2013-08-13 02:08:00,64.6,63.1,29.65,NW,315,0.0,0.0,95,0.00,CLR,SCT,0.00,WeatherDisplay:10.37,2013-08-13 10:08:00,
2013-08-13 02:13:00,64.2,62.8,29.65,NW,315,0.0,0.0,95,0.00,CLR,SCT,0.00,WeatherDisplay:10.37,2013-08-13 10:13:00,
2013-08-13 02:18:00,63.9,62.4,29.65,NW,315,0.0,0.0,95,0.00,CLR,SCT,0.00,WeatherDisplay:10.37,2013-08-13 10:18:00,
2013-08-13 02:23:00,63.7,62.2,29.65,NW,315,0.0,0.0,95,0.00,CLR,SCT,0.00,WeatherDisplay:10.37,2013-08-13 10:23:00,
2013-08-13 02:28:00,63.3,61.9,29.65,NW,315,0.0,0.0,95,0.00,CLR,SCT,0.00,WeatherDisplay:10.37,2013-08-13 10:28:00,
2013-08-13 02:33:00,63.0,61.5,29.65,NW,315,0.0,0.0,95,0.00,CLR,SCT,0.00,WeatherDisplay:10.37,2013-08-13 10:33:00,
2013-08-13 02:38:00,62.4,61.3,29.65,NW,315,0.0,0.0,96,0.00,CLR,SCT,0.00,WeatherDisplay:10.37,2013-08-13 10:38:00,
2013-08-13 02:43:00,61.9,60.7,29.65,NW,315,0.0,0.0,96,0.00,CLR,SCT,0.00,WeatherDisplay:10.37,2013-08-13 10:43:00,
2013-08-13 02:48:00,61.3,60.2,29.65,NW,315,0.0,0.0,96,0.00,CLR,SCT,0.00,WeatherDisplay:10.37,2013-08-13 10:48:00,
2013-08-13 02:53:00,60.8,59.7,29.65,NW,315,0.0,0.0,96,0.00,CLR,SCT,0.00,WeatherDisplay:10.37,2013-08-13 10:53:00,
2013-08-13 02:58:00,60.6,59.5,29.65,NW,315,0.0,0.0,96,0.00,CLR,SCT,0.00,WeatherDisplay:10.37,2013-08-13 10:58:00,
2013-08-13 03:03:00,60.6,59.5,29.65,NW,315,0.0,0.0,96,0.00,CLR,SCT,0.00,WeatherDisplay:10.37,2013-08-13 11:03:00,
2013-08-13 03:08:00,60.6,59.5,29.65,NW,315,0.0,0.0,96,0.00,CLR,SCT,0.00,WeatherDisplay:10.37,2013-08-13 11:08:00,
2013-08-13 03:13:00,60.6,59.5,29.65,NW,315,0.0,0.0,96,0.00,CLR,SCT,0.00,WeatherDisplay:10.37,2013-08-13 11:13:00,
2013-08-13 03:18:00,60.6,59.5,29.65,NW,315,0.0,0.0,96,0.00,CLR,SCT,0.00,WeatherDisplay:10.37,2013-08-13 11:18:00,
2013-08-13 03:23:00,60.6,59.5,29.65,NW,315,0.0,0.0,96,0.00,CLR,SCT,0.00,WeatherDisplay:10.37,2013-08-13 11:23:00,
2013-08-13 03:28:00,60.6,59.5,29.65,NW,315,0.0,0.0,96,0.00,CLR,SCT,0.00,WeatherDisplay:10.37,2013-08-13 11:28:00,
2013-08-13 03:33:00,60.3,59.1,29.65,NW,315,0.0,0.0,96,0.00,CLR,SCT,0.00,WeatherDisplay:10.37,2013-08-13 11:33:00,
2013-08-13 03:38:00,60.3,59.1,29.65,NW,315,0.0,0.0,96,0.00,CLR,SCT,0.00,WeatherDisplay:10.37,2013-08-13 11:38:00,
2013-08-13 03:43:00,60.1,58.6,29.65,NW,315,0.0,0.0,95,0.00,CLR,SCT,0.00,WeatherDisplay:10.37,2013-08-13 11:43:00,
2013-08-13 03:48:00,60.1,58.6,29.62,NW,315,0.0,0.0,95,0.00,CLR,SCT,0.00,WeatherDisplay:10.37,2013-08-13 11:48:00,
2013-08-13 03:53:00,60.3,58.8,29.62,NW,315,0.0,0.0,95,0.00,CLR,SCT,0.00,WeatherDisplay:10.37,2013-08-13 11:53:00,
2013-08-13 03:58:00,60.3,58.8,29.62,NW,315,0.0,0.0,95,0.00,CLR,SCT,0.00,WeatherDisplay:10.37,2013-08-13 11:58:00,
2013-08-13 04:03:00,60.4,59.0,29.65,NW,315,0.0,0.0,95,0.00,CLR,SCT,0.00,WeatherDisplay:10.37,2013-08-13 12:03:00,
2013-08-13 04:08:00,60.3,58.8,29.65,NW,315,0.0,0.0,95,0.00,CLR,SCT,0.00,WeatherDisplay:10.37,2013-08-13 12:08:00,
2013-08-13 04:13:00,60.4,59.0,29.65,NW,315,0.0,0.0,95,0.00,CLR,SCT,0.00,WeatherDisplay:10.37,2013-08-13 12:13:00,
2013-08-13 04:18:00,60.4,59.0,29.65,NW,315,0.0,0.0,95,0.00,CLR,SCT,0.00,WeatherDisplay:10.37,2013-08-13 12:18:00,
2013-08-13 04:23:00,60.4,59.0,29.65,NW,315,0.0,0.0,95,0.00,CLR,SCT,0.00,WeatherDisplay:10.37,2013-08-13 12:23:00,
2013-08-13 04:28:00,60.4,59.0,29.65,NW,315,0.0,0.0,95,0.00,CLR,SCT,0.00,WeatherDisplay:10.37,2013-08-13 12:28:00,
2013-08-13 04:33:00,60.3,58.8,29.62,NW,315,0.0,0.0,95,0.00,CLR,SCT,0.00,WeatherDisplay:10.37,2013-08-13 12:33:00,
2013-08-13 04:38:00,60.3,58.8,29.62,NW,315,0.0,0.0,95,0.00,CLR,SCT,0.00,WeatherDisplay:10.37,2013-08-13 12:38:00,
2013-08-13 04:43:00,60.1,58.6,29.62,NW,315,0.0,0.0,95,0.00,CLR,SCT,0.00,WeatherDisplay:10.37,2013-08-13 12:43:00,
2013-08-13 04:48:00,60.1,58.6,29.62,NW,315,0.0,0.0,95,0.00,CLR,SCT,0.00,WeatherDisplay:10.37,2013-08-13 12:48:00,
2013-08-13 04:53:00,60.3,58.8,29.62,NW,315,0.0,0.0,95,0.00,CLR,SCT,0.00,WeatherDisplay:10.37,2013-08-13 12:53:00,
2013-08-13 04:58:00,60.3,58.8,29.62,NW,315,0.0,0.0,95,0.00,CLR,SCT,0.00,WeatherDisplay:10.37,2013-08-13 12:58:00,
2013-08-13 05:03:00,60.1,58.6,29.62,NW,315,0.0,0.0,95,0.00,CLR,SCT,0.00,WeatherDisplay:10.37,2013-08-13 13:03:00,
2013-08-13 05:08:00,59.9,58.5,29.62,NW,315,0.0,0.0,95,0.00,CLR,SCT,0.00,WeatherDisplay:10.37,2013-08-13 13:08:00,
2013-08-13 05:13:00,59.7,58.3,29.62,NW,315,0.0,0.0,95,0.00,CLR,SCT,0.00,WeatherDisplay:10.37,2013-08-13 13:13:00,
2013-08-13 05:18:00,59.9,58.5,29.62,NW,315,0.0,0.0,95,0.00,CLR,SCT,0.00,WeatherDisplay:10.37,2013-08-13 13:18:00,
2013-08-13 05:23:00,60.4,59.0,29.62,NW,315,0.0,0.0,95,0.00,CLR,SCT,0.00,WeatherDisplay:10.37,2013-08-13 13:23:00,
2013-08-13 05:28:00,60.4,59.0,29.62,NW,315,0.0,0.0,95,0.00,CLR,SCT,0.00,WeatherDisplay:10.37,2013-08-13 13:28:00,
2013-08-13 05:33:00,60.4,58.7,29.62,NW,315,0.0,0.0,94,0.00,CLR,SCT,0.00,WeatherDisplay:10.37,2013-08-13 13:33:00,
2013-08-13 05:38:00,60.4,59.0,29.62,NW,315,0.0,0.0,95,0.00,CLR,SCT,0.00,WeatherDisplay:10.37,2013-08-13 13:38:00,
2013-08-13 05:43:00,60.6,59.2,29.62,NW,315,0.0,0.0,95,0.00,CLR,SCT,0.00,WeatherDisplay:10.37,2013-08-13 13:43:00,
2013-08-13 05:48:00,60.6,59.2,29.62,NW,315,0.0,0.0,95,0.00,CLR,SCT,0.00,WeatherDisplay:10.37,2013-08-13 13:48:00,
2013-08-13 05:53:00,60.4,58.7,29.62,NW,315,0.0,0.0,94,0.00,CLR,SCT,0.00,WeatherDisplay:10.37,2013-08-13 13:53:00,
2013-08-13 05:58:00,60.6,59.2,29.62,NW,315,0.0,0.0,95,0.00,CLR,SCT,0.00,WeatherDisplay:10.37,2013-08-13 13:58:00,
2013-08-13 06:03:00,61.0,59.2,29.62,NW,315,0.0,0.0,94,0.00,CLR,SCT,0.00,WeatherDisplay:10.37,2013-08-13 14:03:00,
2013-08-13 06:08:00,61.3,59.6,29.62,NW,315,0.0,0.0,94,0.00,CLR,SCT,0.00,WeatherDisplay:10.37,2013-08-13 14:08:00,
2013-08-13 06:13:00,61.9,60.1,29.62,NW,315,0.0,0.0,94,0.00,CLR,SCT,0.00,WeatherDisplay:10.37,2013-08-13 14:13:00,
2013-08-13 06:18:00,62.2,60.5,29.62,NW,315,0.0,0.0,94,0.00,CLR,SCT,0.00,WeatherDisplay:10.37,2013-08-13 14:18:00,
2013-08-13 06:23:00,62.2,60.8,29.62,NW,315,0.0,0.0,95,0.00,CLR,SCT,0.00,WeatherDisplay:10.37,2013-08-13 14:23:00,
2013-08-13 06:28:00,62.4,60.7,29.62,NW,315,0.0,0.0,94,0.00,CLR,SCT,0.00,WeatherDisplay:10.37,2013-08-13 14:28:00,
2013-08-13 06:33:00,63.0,61.2,29.62,NW,315,0.0,0.0,94,0.00,CLR,SCT,0.00,WeatherDisplay:10.37,2013-08-13 14:33:00,
2013-08-13 06:38:00,63.3,61.6,29.62,NW,315,0.0,0.0,94,0.00,CLR,SCT,0.00,WeatherDisplay:10.37,2013-08-13 14:38:00,
2013-08-13 06:43:00,63.3,61.6,29.62,NW,315,0.0,0.0,94,0.00,CLR,SCT,0.00,WeatherDisplay:10.37,2013-08-13 14:43:00,
2013-08-13 06:48:00,63.7,61.9,29.62,NW,315,0.0,0.0,94,0.00,CLR,SCT,0.00,WeatherDisplay:10.37,2013-08-13 14:48:00,
2013-08-13 06:53:00,63.9,62.4,29.62,NW,315,0.0,0.0,95,0.00,CLR,SCT,0.00,WeatherDisplay:10.37,2013-08-13 14:53:00,
2013-08-13 06:58:00,63.9,62.1,29.62,NW,315,0.0,0.0,94,0.00,CLR,SCT,0.00,WeatherDisplay:10.37,2013-08-13 14:58:00,
2013-08-13 07:03:00,64.4,62.6,29.62,NW,315,0.0,0.0,94,0.00,CLR,SCT,0.00,WeatherDisplay:10.37,2013-08-13 15:03:00,
2013-08-13 07:08:00,64.9,63.2,29.62,NW,315,0.0,0.0,94,0.00,CLR,SCT,0.00,WeatherDisplay:10.37,2013-08-13 15:08:00,
2013-08-13 07:13:00,65.3,63.5,29.62,NW,315,0.0,0.0,94,0.00,CLR,SCT,0.00,WeatherDisplay:10.37,2013-08-13 15:13:00,
2013-08-13 07:18:00,65.7,63.9,29.62,NW,315,0.0,0.0,94,0.00,CLR,SCT,0.00,WeatherDisplay:10.37,2013-08-13 15:18:00,
2013-08-13 07:23:00,66.0,64.5,29.62,NW,315,0.0,0.0,95,0.00,CLR,SCT,0.00,WeatherDisplay:10.37,2013-08-13 15:23:00,
2013-08-13 07:28:00,66.2,64.4,29.62,NW,315,0.0,0.0,94,0.00,CLR,SCT,0.00,WeatherDisplay:10.37,2013-08-13 15:28:00,
2013-08-13 07:34:00,66.6,64.8,29.62,NW,315,0.0,0.0,94,0.00,CLR,SCT,0.00,WeatherDisplay:10.37,2013-08-13 15:34:00,
2013-08-13 07:39:00,66.7,65.0,29.62,NW,315,0.0,0.0,94,0.00,CLR,SCT,0.00,WeatherDisplay:10.37,2013-08-13 15:39:00,
2013-08-13 07:44:00,67.1,65.3,29.62,NW,315,0.0,0.0,94,0.00,CLR,SCT,0.00,WeatherDisplay:10.37,2013-08-13 15:44:00,
2013-08-13 07:49:00,67.6,65.9,29.62,NW,315,0.0,0.0,94,0.00,CLR,SCT,0.00,WeatherDisplay:10.37,2013-08-13 15:49:00,
2013-08-13 07:54:00,68.0,66.2,29.62,NW,315,0.0,0.0,94,0.00,CLR,SCT,0.00,WeatherDisplay:10.37,2013-08-13 15:54:00,
2013-08-13 07:59:00,68.4,66.6,29.62,NW,315,0.0,0.0,94,0.00,CLR,SCT,0.00,WeatherDisplay:10.37,2013-08-13 15:59:00,
2013-08-13 08:04:00,68.5,66.7,29.62,NW,315,0.0,0.0,94,0.00,CLR,SCT,0.00,WeatherDisplay:10.37,2013-08-13 16:04:00,
2013-08-13 08:09:00,68.7,66.9,29.62,NW,315,0.0,0.0,94,0.00,CLR,SCT,0.00,WeatherDisplay:10.37,2013-08-13 16:09:00,
2013-08-13 08:14:00,68.2,66.4,29.62,NW,315,2.3,0.0,94,0.00,CLR,SCT,0.00,WeatherDisplay:10.37,2013-08-13 16:14:00,
2013-08-13 08:19:00,67.6,65.9,29.62,NW,315,0.0,0.0,94,0.00,CLR,SCT,0.00,WeatherDisplay:10.37,2013-08-13 16:19:00,
2013-08-13 08:24:00,67.3,65.5,29.62,NW,315,0.0,0.0,94,0.00,CLR,SCT,0.00,WeatherDisplay:10.37,2013-08-13 16:24:00,
2013-08-13 08:29:00,67.3,65.5,29.62,NW,315,0.0,0.0,94,0.00,CLR,SCT,0.00,WeatherDisplay:10.37,2013-08-13 16:29:00,
2013-08-13 08:34:00,67.1,65.3,29.62,NW,315,0.0,0.0,94,0.00,CLR,SCT,0.00,WeatherDisplay:10.37,2013-08-13 16:34:00,
2013-08-13 08:39:00,67.1,65.3,29.62,NW,315,0.0,0.0,94,0.00,CLR,SCT,0.00,WeatherDisplay:10.37,2013-08-13 16:39:00,
2013-08-13 08:44:00,67.1,65.3,29.62,NW,315,0.0,0.0,94,0.00,CLR,SCT,0.00,WeatherDisplay:10.37,2013-08-13 16:44:00,
2013-08-13 08:49:00,66.9,65.1,29.62,NW,315,0.0,0.0,94,0.00,CLR,SCT,0.00,WeatherDisplay:10.37,2013-08-13 16:49:00,
2013-08-13 08:54:00,66.9,65.1,29.62,NW,315,0.0,0.0,94,0.00,CLR,SCT,0.00,WeatherDisplay:10.37,2013-08-13 16:54:00,
2013-08-13 08:59:00,66.6,64.8,29.62,NW,315,0.0,0.0,94,0.00,CLR,SCT,0.00,WeatherDisplay:10.37,2013-08-13 16:59:00,
2013-08-13 09:04:00,66.6,64.8,29.62,NW,315,0.0,0.0,94,0.00,CLR,SCT,0.00,WeatherDisplay:10.37,2013-08-13 17:04:00,
2013-08-13 09:12:00,66.0,64.2,29.62,NW,315,2.2,0.0,94,0.00,CLR,SCT,0.00,WeatherDisplay:10.37,2013-08-13 17:12:00,
2013-08-13 09:17:00,65.5,64.0,29.62,NW,315,0.0,0.0,95,0.00,CLR,SCT,0.00,WeatherDisplay:10.37,2013-08-13 17:17:00,
2013-08-13 09:22:00,64.9,63.2,29.62,NW,315,3.5,0.0,94,0.00,CLR,SCT,0.00,WeatherDisplay:10.37,2013-08-13 17:22:00,
2013-08-13 09:27:00,64.8,63.0,29.62,NW,315,0.0,0.0,94,0.00,CLR,SCT,0.00,WeatherDisplay:10.37,2013-08-13 17:27:00,
2013-08-13 09:32:00,64.8,63.3,29.62,NW,315,0.0,0.0,95,0.00,CLR,SCT,0.00,WeatherDisplay:10.37,2013-08-13 17:32:00,
2013-08-13 09:37:00,64.2,62.8,29.62,NW,315,2.3,0.0,95,0.00,CLR,SCT,0.00,WeatherDisplay:10.37,2013-08-13 17:37:00,
2013-08-13 09:42:00,63.9,62.4,29.62,NW,315,0.0,0.0,95,0.00,CLR,SCT,0.00,WeatherDisplay:10.37,2013-08-13 17:42:00,
2013-08-13 09:47:00,63.9,62.4,29.62,NNW,338,3.5,0.0,95,0.00,CLR,SCT,0.00,WeatherDisplay:10.37,2013-08-13 17:47:00,
2013-08-13 09:52:00,63.0,61.5,29.62,NNW,338,2.3,0.0,95,0.00,CLR,SCT,0.00,WeatherDisplay:10.37,2013-08-13 17:52:00,
2013-08-13 09:57:00,62.6,61.1,29.62,NNW,338,0.0,0.0,95,0.00,CLR,SCT,0.00,WeatherDisplay:10.37,2013-08-13 17:57:00,
2013-08-13 10:02:00,62.1,60.6,29.62,NNW,338,0.0,0.0,95,0.00,CLR,SCT,0.00,WeatherDisplay:10.37,2013-08-13 18:02:00,
2013-08-13 10:07:00,61.3,59.9,29.62,NNW,338,2.3,0.0,95,0.00,CLR,SCT,0.00,WeatherDisplay:10.37,2013-08-13 18:07:00,
2013-08-13 10:12:00,61.0,59.5,29.62,NNW,338,0.0,0.0,95,0.00,CLR,SCT,0.00,WeatherDisplay:10.37,2013-08-13 18:12:00,
2013-08-13 10:17:00,60.4,59.3,29.65,NNW,338,2.3,0.0,96,0.00,CLR,SCT,0.00,WeatherDisplay:10.37,2013-08-13 18:17:00,
2013-08-13 10:22:00,60.6,59.5,29.65,NNW,338,2.3,0.0,96,0.00,CLR,SCT,0.00,WeatherDisplay:10.37,2013-08-13 18:22:00,
2013-08-13 10:27:00,60.4,59.0,29.65,NNW,338,0.0,0.0,95,0.00,CLR,SCT,0.00,WeatherDisplay:10.37,2013-08-13 18:27:00,
2013-08-13 10:32:00,60.4,59.0,29.65,NNW,338,5.8,5.8,95,0.00,CLR,SCT,0.00,WeatherDisplay:10.37,2013-08-13 18:32:00,
2013-08-13 10:37:00,60.3,58.8,29.65,NNW,338,0.0,0.0,95,0.00,CLR,SCT,0.00,WeatherDisplay:10.37,2013-08-13 18:37:00,
2013-08-13 10:42:00,60.1,58.6,29.65,NNW,338,0.0,0.0,95,0.00,CLR,SCT,0.00,WeatherDisplay:10.37,2013-08-13 18:42:00,
2013-08-13 10:48:00,60.1,58.6,29.65,NW,315,0.0,0.0,95,0.00,CLR,SCT,0.00,WeatherDisplay:10.37,2013-08-13 18:48:00,
2013-08-13 10:53:00,60.1,58.6,29.65,NW,315,0.0,2.6,95,0.00,CLR,SCT,0.00,WeatherDisplay:10.37,2013-08-13 18:53:00,
2013-08-13 10:58:00,60.1,58.6,29.65,NW,315,0.0,0.0,95,0.00,CLR,SCT,0.00,WeatherDisplay:10.37,2013-08-13 18:58:00,
2013-08-13 11:03:00,60.1,58.6,29.65,NW,315,0.0,0.0,95,0.00,CLR,SCT,0.00,WeatherDisplay:10.37,2013-08-13 19:03:00,
2013-08-13 11:08:00,60.4,59.0,29.65,NW,315,0.0,0.0,95,0.00,CLR,SCT,0.00,WeatherDisplay:10.37,2013-08-13 19:08:00,
2013-08-13 11:13:00,60.3,58.8,29.65,NW,315,0.0,0.0,95,0.00,CLR,SCT,0.00,WeatherDisplay:10.37,2013-08-13 19:13:00,
2013-08-13 11:18:00,60.6,59.2,29.65,NW,315,0.0,0.0,95,0.00,CLR,SCT,0.00,WeatherDisplay:10.37,2013-08-13 19:18:00,
2013-08-13 11:23:00,60.4,59.0,29.65,NW,315,0.0,0.0,95,0.00,CLR,SCT,0.00,WeatherDisplay:10.37,2013-08-13 19:23:00,
2013-08-13 11:28:00,60.4,59.0,29.65,NNW,338,0.0,0.0,95,0.00,CLR,SCT,0.00,WeatherDisplay:10.37,2013-08-13 19:28:00,
2013-08-13 11:33:00,59.9,58.5,29.65,NW,315,0.0,0.0,95,0.00,CLR,SCT,0.00,WeatherDisplay:10.37,2013-08-13 19:33:00,
2013-08-13 11:38:00,60.1,58.6,29.65,NW,315,0.0,0.0,95,0.00,CLR,SCT,0.00,WeatherDisplay:10.37,2013-08-13 19:38:00,
2013-08-13 11:43:00,60.4,59.0,29.65,NW,315,0.0,0.0,95,0.00,CLR,SCT,0.00,WeatherDisplay:10.37,2013-08-13 19:43:00,
2013-08-13 11:48:00,60.1,58.6,29.65,NW,315,2.6,0.0,95,0.00,CLR,SCT,0.00,WeatherDisplay:10.37,2013-08-13 19:48:00,
2013-08-13 11:53:00,59.9,58.5,29.65,NNW,338,2.3,0.0,95,0.00,CLR,SCT,0.00,WeatherDisplay:10.37,2013-08-13 19:53:00,
2013-08-13 11:58:00,60.1,58.6,29.65,NNW,338,0.0,0.0,95,0.00,CLR,SCT,0.00,WeatherDisplay:10.37,2013-08-13 19:58:00,
2013-08-13 12:03:00,59.7,58.3,29.65,NW,315,3.5,0.0,95,0.00,CLR,SCT,0.00,WeatherDisplay:10.37,2013-08-13 20:03:00,
2013-08-13 12:08:00,59.9,58.5,29.65,NW,315,0.0,0.0,95,0.00,CLR,SCT,0.00,WeatherDisplay:10.37,2013-08-13 20:08:00,
2013-08-13 12:13:00,58.8,57.4,29.65,NW,315,0.0,0.0,95,0.00,CLR,SCT,0.00,WeatherDisplay:10.37,2013-08-13 20:13:00,
2013-08-13 12:18:00,58.5,56.7,29.65,NW,315,0.0,0.0,94,0.00,CLR,SCT,0.00,WeatherDisplay:10.37,2013-08-13 20:18:00,
2013-08-13 12:23:00,59.0,57.3,29.65,NW,315,0.0,0.0,94,0.00,CLR,SCT,0.00,WeatherDisplay:10.37,2013-08-13 20:23:00,
2013-08-13 12:28:00,59.0,57.3,29.65,NW,315,0.0,0.0,94,0.00,CLR,SCT,0.00,WeatherDisplay:10.37,2013-08-13 20:28:00,
2013-08-13 12:33:00,58.8,57.1,29.65,NW,315,2.3,0.0,94,0.00,CLR,SCT,0.00,WeatherDisplay:10.37,2013-08-13 20:33:00,
2013-08-13 12:38:00,58.8,56.8,29.65,NW,315,0.0,0.0,93,0.00,CLR,SCT,0.00,WeatherDisplay:10.37,2013-08-13 20:38:00,
2013-08-13 12:43:00,58.6,56.6,29.65,NW,315,0.0,0.0,93,0.00,CLR,SCT,0.00,WeatherDisplay:10.37,2013-08-13 20:43:00,
2013-08-13 12:48:00,58.1,55.8,29.65,NW,315,4.6,4.6,92,0.00,CLR,SCT,0.00,WeatherDisplay:10.37,2013-08-13 20:48:00,
2013-08-13 12:53:00,58.3,55.7,29.65,NW,315,3.5,0.0,91,0.00,CLR,SCT,0.00,WeatherDisplay:10.37,2013-08-13 20:53:00,
2013-08-13 12:58:00,58.5,55.8,29.65,NW,315,0.0,0.0,91,0.00,CLR,SCT,0.00,WeatherDisplay:10.37,2013-08-13 20:58:00,
2013-08-13 13:03:00,58.6,55.7,29.65,NW,315,0.0,0.0,90,0.00,CLR,SCT,0.00,WeatherDisplay:10.37,2013-08-13 21:03:00,
2013-08-13 13:08:00,58.5,54.9,29.65,NW,315,0.0,0.0,88,0.00,CLR,SCT,0.00,WeatherDisplay:10.37,2013-08-13 21:08:00,
2013-08-13 13:13:00,58.8,55.0,29.65,NW,315,0.0,0.0,87,0.00,CLR,SCT,0.00,WeatherDisplay:10.37,2013-08-13 21:13:00,
2013-08-13 13:18:00,59.2,55.0,29.65,NNW,338,3.5,0.0,86,0.00,CLR,SCT,0.00,WeatherDisplay:10.37,2013-08-13 21:18:00,
2013-08-13 13:23:00,58.6,53.8,29.65,NNW,338,3.5,0.0,84,0.00,CLR,SCT,0.00,WeatherDisplay:10.37,2013-08-13 21:23:00,
2013-08-13 13:28:00,58.3,52.8,29.65,NNW,338,2.3,0.0,82,0.00,CLR,SCT,0.00,WeatherDisplay:10.37,2013-08-13 21:28:00,
2013-08-13 13:33:00,59.0,53.5,29.65,NNW,338,0.0,0.0,82,0.00,CLR,SCT,0.00,WeatherDisplay:10.37,2013-08-13 21:33:00,
2013-08-13 13:38:00,59.2,53.7,29.65,NNW,338,2.3,0.0,82,0.00,CLR,SCT,0.00,WeatherDisplay:10.37,2013-08-13 21:38:00,
2013-08-13 13:43:00,58.8,53.0,29.65,NNW,338,4.6,4.6,81,0.00,CLR,SCT,0.00,WeatherDisplay:10.37,2013-08-13 21:43:00,
2013-08-13 13:48:00,58.8,52.7,29.65,NNW,338,2.3,0.0,80,0.00,CLR,SCT,0.00,WeatherDisplay:10.37,2013-08-13 21:48:00,
2013-08-13 13:53:00,58.8,52.7,29.65,NNW,338,4.0,4.0,80,0.00,CLR,SCT,0.00,WeatherDisplay:10.37,2013-08-13 21:53:00,
2013-08-13 13:58:00,58.5,52.0,29.65,NW,315,3.5,0.0,79,0.00,CLR,SCT,0.00,WeatherDisplay:10.37,2013-08-13 21:58:00,
2013-08-13 14:03:00,58.1,51.6,29.65,NW,315,2.3,0.0,79,0.00,CLR,SCT,0.00,WeatherDisplay:10.37,2013-08-13 22:03:00,
2013-08-13 14:08:00,57.9,51.4,29.65,NNW,338,3.5,3.5,79,0.00,CLR,SCT,0.00,WeatherDisplay:10.37,2013-08-13 22:08:00,
2013-08-13 14:13:00,58.3,52.5,29.65,NNW,338,0.0,0.0,81,0.00,CLR,SCT,0.00,WeatherDisplay:10.37,2013-08-13 22:13:00,
2013-08-13 14:18:00,58.5,52.6,29.65,NNW,338,4.6,0.0,81,0.00,CLR,SCT,0.00,WeatherDisplay:10.37,2013-08-13 22:18:00,
2013-08-13 14:23:00,58.6,52.5,29.65,NNW,338,0.0,0.0,80,0.00,CLR,SCT,0.00,WeatherDisplay:10.37,2013-08-13 22:23:00,
2013-08-13 14:28:00,58.5,52.3,29.65,NNW,338,0.0,0.0,80,0.00,CLR,SCT,0.00,WeatherDisplay:10.37,2013-08-13 22:28:00,
2013-08-13 14:33:00,58.5,52.3,29.65,NNW,338,0.0,0.0,80,0.00,CLR,SCT,0.00,WeatherDisplay:10.37,2013-08-13 22:33:00,
2013-08-13 14:38:00,58.6,52.8,29.65,NNW,338,0.0,0.0,81,0.00,CLR,SCT,0.00,WeatherDisplay:10.37,2013-08-13 22:38:00,
2013-08-13 14:43:00,58.8,53.3,29.65,NNW,338,3.5,3.5,82,0.00,CLR,SCT,0.00,WeatherDisplay:10.37,2013-08-13 22:43:00,
2013-08-13 14:48:00,58.3,52.1,29.65,NW,315,2.3,0.0,80,0.00,CLR,SCT,0.00,WeatherDisplay:10.37,2013-08-13 22:48:00,
2013-08-13 14:53:00,58.1,52.3,29.65,NW,315,4.6,4.6,81,0.00,CLR,SCT,0.00,WeatherDisplay:10.37,2013-08-13 22:53:00,
2013-08-13 14:58:00,57.6,51.1,29.65,NW,315,4.0,4.0,79,0.00,CLR,SCT,0.00,WeatherDisplay:10.37,2013-08-13 22:58:00,
2013-08-13 15:03:00,57.6,51.4,29.65,NW,315,3.5,3.5,80,0.00,CLR,SCT,0.00,WeatherDisplay:10.37,2013-08-13 23:03:00,
2013-08-13 15:08:00,57.4,51.3,29.65,NNW,338,2.3,2.6,80,0.00,CLR,SCT,0.00,WeatherDisplay:10.37,2013-08-13 23:08:00,
2013-08-13 15:13:00,57.6,51.8,29.65,NW,315,3.5,0.0,81,0.00,CLR,SCT,0.00,WeatherDisplay:10.37,2013-08-13 23:13:00,
2013-08-13 15:18:00,57.7,51.9,29.65,NW,315,3.5,3.5,81,0.00,CLR,SCT,0.00,WeatherDisplay:10.37,2013-08-13 23:18:00,
2013-08-13 15:23:00,57.7,52.3,29.65,NW,315,3.6,0.0,82,0.00,CLR,SCT,0.00,WeatherDisplay:10.37,2013-08-13 23:23:00,
2013-08-13 15:28:00,57.7,52.3,29.65,NW,315,3.5,3.5,82,0.00,CLR,SCT,0.00,WeatherDisplay:10.37,2013-08-13 23:28:00,
2013-08-13 15:33:00,57.6,51.8,29.65,NW,315,4.0,0.0,81,0.00,CLR,SCT,0.00,WeatherDisplay:10.37,2013-08-13 23:33:00,
2013-08-13 15:38:00,57.4,51.6,29.65,NNW,338,8.1,8.1,81,0.00,CLR,SCT,0.00,WeatherDisplay:10.37,2013-08-13 23:38:00,
2013-08-13 15:43:00,57.6,51.8,29.65,NNW,338,0.0,0.0,81,0.00,CLR,SCT,0.00,WeatherDisplay:10.37,2013-08-13 23:43:00,
2013-08-13 15:48:00,57.6,51.8,29.65,NNW,338,5.8,5.8,81,0.00,CLR,SCT,0.00,WeatherDisplay:10.37,2013-08-13 23:48:00,
2013-08-13 15:53:00,57.4,51.3,29.65,NNW,338,4.0,0.0,80,0.00,CLR,SCT,0.00,WeatherDisplay:10.37,2013-08-13 23:53:00,
2013-08-13 15:58:00,57.0,51.2,29.65,NW,315,5.8,0.0,81,0.00,CLR,SCT,0.00,WeatherDisplay:10.37,2013-08-13 23:58:00,
2013-08-13 16:03:00,57.2,51.4,29.62,NW,315,0.0,0.0,81,0.00,CLR,SCT,0.00,WeatherDisplay:10.37,2013-08-14 00:03:00,
2013-08-13 16:08:00,57.2,51.4,29.62,North,0,2.6,2.6,81,0.00,CLR,SCT,0.00,WeatherDisplay:10.37,2013-08-14 00:08:00,
2013-08-13 16:13:00,57.2,51.4,29.62,NNE,22,4.6,0.0,81,0.00,CLR,SCT,0.00,WeatherDisplay:10.37,2013-08-14 00:13:00,
2013-08-13 16:19:00,57.2,51.4,29.65,South,180,0.0,2.6,81,0.00,CLR,SCT,0.00,WeatherDisplay:10.37,2013-08-14 00:19:00,
2013-08-13 16:24:00,57.2,51.8,29.65,North,0,4.6,4.6,82,0.00,CLR,SCT,0.00,WeatherDisplay:10.37,2013-08-14 00:24:00,
2013-08-13 16:29:00,57.7,52.3,29.65,NW,315,0.0,0.0,82,0.00,CLR,SCT,0.00,WeatherDisplay:10.37,2013-08-14 00:29:00,
2013-08-13 16:34:00,57.7,52.3,29.65,NNW,338,2.3,0.0,82,0.00,CLR,SCT,0.00,WeatherDisplay:10.37,2013-08-14 00:34:00,
2013-08-13 16:39:00,57.6,52.1,29.65,NNW,338,0.0,0.0,82,0.00,CLR,SCT,0.00,WeatherDisplay:10.37,2013-08-14 00:39:00,
2013-08-13 16:44:00,57.4,51.9,29.65,NW,315,3.5,0.0,82,0.00,CLR,SCT,0.00,WeatherDisplay:10.37,2013-08-14 00:44:00,
2013-08-13 16:49:00,57.0,51.6,29.65,NNW,338,0.0,0.0,82,0.00,CLR,SCT,0.00,WeatherDisplay:10.37,2013-08-14 00:49:00,
2013-08-13 16:54:00,57.2,51.8,29.65,North,0,2.3,0.0,82,0.00,CLR,SCT,0.00,WeatherDisplay:10.37,2013-08-14 00:54:00,
2013-08-13 16:59:00,57.0,51.9,29.65,NNW,338,0.0,0.0,83,0.00,CLR,SCT,0.00,WeatherDisplay:10.37,2013-08-14 00:59:00,
2013-08-13 17:04:00,57.0,51.9,29.65,NNW,338,0.0,0.0,83,0.00,CLR,SCT,0.00,WeatherDisplay:10.37,2013-08-14 01:04:00,
2013-08-13 17:09:00,57.2,52.1,29.65,WSW,248,5.8,5.8,83,0.00,CLR,SCT,0.00,WeatherDisplay:10.37,2013-08-14 01:09:00,
2013-08-13 17:14:00,56.8,51.7,29.65,WNW,292,4.6,4.6,83,0.00,CLR,SCT,0.00,WeatherDisplay:10.37,2013-08-14 01:14:00,
2013-08-13 17:19:00,57.0,51.9,29.65,North,0,0.0,0.0,83,0.00,CLR,SCT,0.00,WeatherDisplay:10.37,2013-08-14 01:19:00,
2013-08-13 17:24:00,56.8,51.7,29.65,NNW,338,2.3,0.0,83,0.00,CLR,SCT,0.00,WeatherDisplay:10.37,2013-08-14 01:24:00,
2013-08-13 17:29:00,56.8,51.7,29.65,NNW,338,3.5,0.0,83,0.00,CLR,SCT,0.00,WeatherDisplay:10.37,2013-08-14 01:29:00,
2013-08-13 17:34:00,56.8,51.7,29.65,NNW,338,0.0,0.0,83,0.00,CLR,SCT,0.00,WeatherDisplay:10.37,2013-08-14 01:34:00,
2013-08-13 17:39:00,56.5,51.4,29.65,NW,315,0.0,0.0,83,0.00,CLR,SCT,0.00,WeatherDisplay:10.37,2013-08-14 01:39:00,
2013-08-13 17:44:00,56.5,51.4,29.65,NW,315,3.5,0.0,83,0.00,CLR,SCT,0.00,WeatherDisplay:10.37,2013-08-14 01:44:00,
2013-08-13 17:49:00,56.3,51.2,29.68,WSW,248,3.5,0.0,83,0.00,CLR,SCT,0.00,WeatherDisplay:10.37,2013-08-14 01:49:00,
2013-08-13 17:54:00,56.3,51.2,29.68,NW,315,2.3,0.0,83,0.00,CLR,SCT,0.00,WeatherDisplay:10.37,2013-08-14 01:54:00,
2013-08-13 17:59:00,56.3,51.2,29.68,NW,315,0.0,0.0,83,0.00,CLR,SCT,0.00,WeatherDisplay:10.37,2013-08-14 01:59:00,
2013-08-13 18:04:00,56.5,51.7,29.65,NNW,338,3.5,0.0,84,0.00,CLR,SCT,0.00,WeatherDisplay:10.37,2013-08-14 02:04:00,
2013-08-13 18:09:00,56.7,51.9,29.65,NNW,338,0.0,0.0,84,0.00,CLR,SCT,0.00,WeatherDisplay:10.37,2013-08-14 02:09:00,
2013-08-13 18:14:00,56.8,52.1,29.65,NNW,338,3.5,0.0,84,0.00,CLR,SCT,0.00,WeatherDisplay:10.37,2013-08-14 02:14:00,
2013-08-13 18:19:00,56.8,51.7,29.65,NNW,338,0.0,0.0,83,0.00,CLR,SCT,0.00,WeatherDisplay:10.37,2013-08-14 02:19:00,
2013-08-13 18:24:00,56.8,51.7,29.65,NNW,338,3.5,3.5,83,0.00,CLR,SCT,0.00,WeatherDisplay:10.37,2013-08-14 02:24:00,
2013-08-13 18:29:00,56.7,51.9,29.65,NNW,338,0.0,0.0,84,0.00,CLR,SCT,0.00,WeatherDisplay:10.37,2013-08-14 02:29:00,
2013-08-13 18:34:00,56.1,51.0,29.65,WNW,292,5.8,5.8,83,0.00,CLR,SCT,0.00,WeatherDisplay:10.37,2013-08-14 02:34:00,
2013-08-13 18:39:00,56.1,51.4,29.65,WSW,248,0.0,0.0,84,0.00,CLR,SCT,0.00,WeatherDisplay:10.37,2013-08-14 02:39:00,
2013-08-13 18:44:00,55.9,51.5,29.65,North,0,0.0,0.0,85,0.00,CLR,SCT,0.00,WeatherDisplay:10.37,2013-08-14 02:44:00,
2013-08-13 18:49:00,56.1,51.7,29.65,NW,315,0.0,0.0,85,0.00,CLR,SCT,0.00,WeatherDisplay:10.37,2013-08-14 02:49:00,
2013-08-13 18:54:00,56.1,52.0,29.65,NW,315,0.0,0.0,86,0.00,CLR,SCT,0.00,WeatherDisplay:10.37,2013-08-14 02:54:00,
2013-08-13 18:59:00,56.1,52.0,29.65,NNW,338,3.5,0.0,86,0.00,CLR,SCT,0.00,WeatherDisplay:10.37,2013-08-14 02:59:00,
2013-08-13 19:04:00,56.1,52.0,29.65,North,0,3.5,0.0,86,0.00,CLR,SCT,0.00,WeatherDisplay:10.37,2013-08-14 03:04:00,
2013-08-13 19:09:00,55.9,51.8,29.65,North,0,3.5,0.0,86,0.00,CLR,SCT,0.00,WeatherDisplay:10.37,2013-08-14 03:09:00,
2013-08-13 19:14:00,55.9,51.8,29.65,North,0,2.3,0.0,86,0.00,CLR,SCT,0.00,WeatherDisplay:10.37,2013-08-14 03:14:00,
2013-08-13 19:19:00,55.9,51.8,29.65,North,0,2.3,0.0,86,0.00,CLR,SCT,0.00,WeatherDisplay:10.37,2013-08-14 03:19:00,
2013-08-13 19:24:00,56.1,52.0,29.65,North,0,0.0,0.0,86,0.00,CLR,SCT,0.00,WeatherDisplay:10.37,2013-08-14 03:24:00,
2013-08-13 19:29:00,56.1,52.0,29.65,North,0,0.0,0.0,86,0.00,CLR,SCT,0.00,WeatherDisplay:10.37,2013-08-14 03:29:00,
2013-08-13 19:34:00,55.9,51.5,29.65,NW,315,0.0,0.0,85,0.00,CLR,SCT,0.00,WeatherDisplay:10.37,2013-08-14 03:34:00,
2013-08-13 19:39:00,56.3,52.2,29.65,NW,315,0.0,0.0,86,0.00,CLR,SCT,0.00,WeatherDisplay:10.37,2013-08-14 03:39:00,
2013-08-13 19:44:00,56.3,52.2,29.65,NW,315,3.1,0.0,86,0.00,CLR,SCT,0.00,WeatherDisplay:10.37,2013-08-14 03:44:00,
2013-08-13 19:49:00,56.3,52.2,29.65,NW,315,2.3,0.0,86,0.00,CLR,SCT,0.00,WeatherDisplay:10.37,2013-08-14 03:49:00,
2013-08-13 19:54:00,56.5,52.3,29.65,NW,315,3.1,0.0,86,0.00,CLR,SCT,0.00,WeatherDisplay:10.37,2013-08-14 03:54:00,
2013-08-13 19:59:00,56.5,52.0,29.65,NW,315,0.0,0.0,85,0.00,CLR,SCT,0.00,WeatherDisplay:10.37,2013-08-14 03:59:00,
2013-08-13 20:01:00,56.3,51.8,29.65,NW,315,3.5,0.0,85,0.00,CLR,SCT,0.00,WeatherDisplay:10.37,2013-08-14 04:01:00,
2013-08-13 20:02:00,56.3,51.8,29.65,NW,315,0.0,0.0,85,0.00,CLR,SCT,0.00,WeatherDisplay:10.37,2013-08-14 04:02:00,
2013-08-13 20:07:00,56.3,51.8,29.65,NW,315,0.0,0.0,85,0.00,CLR,SCT,0.00,WeatherDisplay:10.37,2013-08-14 04:07:00,
2013-08-13 20:12:00,56.5,52.0,29.65,NW,315,0.0,0.0,85,0.00,CLR,SCT,0.00,WeatherDisplay:10.37,2013-08-14 04:12:00,
2013-08-13 20:17:00,56.5,52.0,29.65,NW,315,0.0,0.0,85,0.00,CLR,SCT,0.00,WeatherDisplay:10.37,2013-08-14 04:17:00,
2013-08-13 20:22:00,56.3,51.5,29.65,NW,315,3.5,0.0,84,0.00,CLR,SCT,0.00,WeatherDisplay:10.37,2013-08-14 04:22:00,
2013-08-13 20:27:00,56.3,51.5,29.65,NW,315,0.0,0.0,84,0.00,CLR,SCT,0.00,WeatherDisplay:10.37,2013-08-14 04:27:00,
2013-08-13 20:32:00,55.9,51.2,29.68,NW,315,0.0,0.0,84,0.00,CLR,SCT,0.00,WeatherDisplay:10.37,2013-08-14 04:32:00,
2013-08-13 20:37:00,55.9,51.5,29.68,NW,315,0.0,0.0,85,0.00,CLR,SCT,0.00,WeatherDisplay:10.37,2013-08-14 04:37:00,
2013-08-13 20:42:00,55.8,51.3,29.68,NW,315,0.0,0.0,85,0.00,CLR,SCT,0.00,WeatherDisplay:10.37,2013-08-14 04:42:00,
2013-08-13 20:47:00,55.4,51.0,29.65,NW,315,0.0,0.0,85,0.00,CLR,SCT,0.00,WeatherDisplay:10.37,2013-08-14 04:47:00,
2013-08-13 20:52:00,55.2,51.1,29.65,NW,315,2.3,0.0,86,0.00,CLR,SCT,0.00,WeatherDisplay:10.37,2013-08-14 04:52:00,
2013-08-13 20:57:00,55.0,50.9,29.65,NW,315,0.0,0.0,86,0.00,CLR,SCT,0.00,WeatherDisplay:10.37,2013-08-14 04:57:00,
2013-08-13 21:02:00,55.0,51.2,29.65,NW,315,0.0,0.0,87,0.00,CLR,SCT,0.00,WeatherDisplay:10.37,2013-08-14 05:02:00,
2013-08-13 21:07:00,54.9,51.1,29.65,NW,315,0.0,0.0,87,0.00,CLR,SCT,0.00,WeatherDisplay:10.37,2013-08-14 05:07:00,
2013-08-13 21:12:00,55.0,51.2,29.65,NW,315,0.0,0.0,87,0.00,CLR,SCT,0.00,WeatherDisplay:10.37,2013-08-14 05:12:00,
2013-08-13 21:17:00,55.0,51.5,29.65,NW,315,0.0,0.0,88,0.00,CLR,SCT,0.00,WeatherDisplay:10.37,2013-08-14 05:17:00,
2013-08-13 21:22:00,54.9,51.4,29.65,NW,315,0.0,0.0,88,0.00,CLR,SCT,0.00,WeatherDisplay:10.37,2013-08-14 05:22:00,
2013-08-13 21:27:00,54.7,51.2,29.65,NW,315,0.0,0.0,88,0.00,CLR,SCT,0.00,WeatherDisplay:10.37,2013-08-14 05:27:00,
2013-08-13 21:32:00,54.7,51.2,29.65,NW,315,0.0,0.0,88,0.00,CLR,SCT,0.00,WeatherDisplay:10.37,2013-08-14 05:32:00,
2013-08-13 21:37:00,54.5,51.0,29.65,NW,315,0.0,0.0,88,0.00,CLR,SCT,0.00,WeatherDisplay:10.37,2013-08-14 05:37:00,
2013-08-13 21:42:00,54.5,51.0,29.65,NW,315,0.0,0.0,88,0.00,CLR,SCT,0.00,WeatherDisplay:10.37,2013-08-14 05:42:00,
2013-08-13 21:47:00,54.5,51.3,29.65,NW,315,0.0,0.0,89,0.00,CLR,SCT,0.00,WeatherDisplay:10.37,2013-08-14 05:47:00,
2013-08-13 21:52:00,54.5,51.3,29.65,NW,315,0.0,0.0,89,0.00,CLR,SCT,0.00,WeatherDisplay:10.37,2013-08-14 05:52:00,
2013-08-13 21:57:00,54.5,51.3,29.65,NW,315,0.0,0.0,89,0.00,CLR,SCT,0.00,WeatherDisplay:10.37,2013-08-14 05:57:00,
2013-08-13 22:02:00,54.3,51.1,29.65,NW,315,0.0,0.0,89,0.00,CLR,SCT,0.00,WeatherDisplay:10.37,2013-08-14 06:02:00,
2013-08-13 22:07:00,54.3,51.1,29.65,NW,315,0.0,0.0,89,0.00,CLR,SCT,0.00,WeatherDisplay:10.37,2013-08-14 06:07:00,
2013-08-13 22:12:00,54.3,51.1,29.65,NW,315,0.0,0.0,89,0.00,CLR,SCT,0.00,WeatherDisplay:10.37,2013-08-14 06:12:00,
2013-08-13 22:17:00,54.1,51.0,29.65,NW,315,0.0,0.0,89,0.00,CLR,SCT,0.00,WeatherDisplay:10.37,2013-08-14 06:17:00,
2013-08-13 22:22:00,54.1,51.0,29.65,NW,315,0.0,0.0,89,0.00,CLR,SCT,0.00,WeatherDisplay:10.37,2013-08-14 06:22:00,
2013-08-13 22:27:00,54.1,51.0,29.65,NW,315,0.0,0.0,89,0.00,CLR,SCT,0.00,WeatherDisplay:10.37,2013-08-14 06:27:00,
2013-08-13 22:32:00,54.1,51.3,29.65,NW,315,0.0,0.0,90,0.00,CLR,SCT,0.00,WeatherDisplay:10.37,2013-08-14 06:32:00,
2013-08-13 22:37:00,54.1,51.3,29.65,NW,315,0.0,0.0,90,0.00,CLR,SCT,0.00,WeatherDisplay:10.37,2013-08-14 06:37:00,
2013-08-13 22:42:00,54.1,51.3,29.65,NW,315,0.0,0.0,90,0.00,CLR,SCT,0.00,WeatherDisplay:10.37,2013-08-14 06:42:00,
2013-08-13 22:47:00,54.1,51.3,29.65,NW,315,0.0,0.0,90,0.00,CLR,SCT,0.00,WeatherDisplay:10.37,2013-08-14 06:47:00,
2013-08-13 22:52:00,54.1,51.3,29.65,NW,315,0.0,0.0,90,0.00,CLR,SCT,0.00,WeatherDisplay:10.37,2013-08-14 06:52:00,
2013-08-13 22:57:00,54.1,51.3,29.65,NW,315,0.0,0.0,90,0.00,CLR,SCT,0.00,WeatherDisplay:10.37,2013-08-14 06:57:00,
2013-08-13 23:03:00,54.1,51.3,29.65,NW,315,0.0,0.0,90,0.00,CLR,SCT,0.00,WeatherDisplay:10.37,2013-08-14 07:03:00,
2013-08-13 23:08:00,54.0,51.1,29.65,NW,315,0.0,0.0,90,0.00,CLR,SCT,0.00,WeatherDisplay:10.37,2013-08-14 07:08:00,
2013-08-13 23:13:00,54.0,51.1,29.65,NW,315,0.0,0.0,90,0.00,CLR,SCT,0.00,WeatherDisplay:10.37,2013-08-14 07:13:00,
2013-08-13 23:18:00,53.8,50.9,29.68,NW,315,0.0,0.0,90,0.00,CLR,SCT,0.00,WeatherDisplay:10.37,2013-08-14 07:18:00,
2013-08-13 23:23:00,53.8,50.9,29.68,NW,315,0.0,0.0,90,0.00,CLR,SCT,0.00,WeatherDisplay:10.37,2013-08-14 07:23:00,
2013-08-13 23:28:00,53.8,50.9,29.68,NW,315,0.0,0.0,90,0.00,CLR,SCT,0.00,WeatherDisplay:10.37,2013-08-14 07:28:00,
2013-08-13 23:33:00,53.6,50.7,29.68,NW,315,0.0,0.0,90,0.00,CLR,SCT,0.00,WeatherDisplay:10.37,2013-08-14 07:33:00,
2013-08-13 23:38:00,53.6,50.7,29.68,NW,315,0.0,0.0,90,0.00,CLR,SCT,0.00,WeatherDisplay:10.37,2013-08-14 07:38:00,
2013-08-13 23:43:00,53.6,50.7,29.68,NW,315,0.0,0.0,90,0.00,CLR,SCT,0.00,WeatherDisplay:10.37,2013-08-14 07:43:00,
2013-08-13 23:48:00,53.6,50.7,29.65,NW,315,0.0,0.0,90,0.00,CLR,SCT,0.00,WeatherDisplay:10.37,2013-08-14 07:48:00,
2013-08-13 23:53:00,53.6,50.7,29.65,NW,315,0.0,0.0,90,0.00,CLR,SCT,0.00,WeatherDisplay:10.37,2013-08-14 07:53:00,
2013-08-13 23:58:00,53.6,50.7,29.65,NW,315,0.0,0.0,90,0.00,CLR,SCT,0.00,WeatherDisplay:10.37,2013-08-14 07:58:00,